»·PEaware :: N956HP KBFL-KSBA

N956HP :: KBFL-KSBA

FLIGHT INFORMATION

Flight Status: Arrived
Operator: Privately registered:
United States
More flights under this callsign
Pilot: Herb P. (797)
Aircraft: BEECH AIRCRAFT SUPER KING AIR 350
(B350)
More flights by this aircraft type
Origin: KBFL Meadows
United States
Destination: KSBA Santa Barbara Mun
United States
More flights between these airports :: More routes between these airports
Route: MEADO5 EHF V183 RZS
File this flight plan on PilotEdge
Remarks:
Altitude:
(Current/Filed)
11,500ft
Speed:
(Current/Filed)
250kts
Departed: 22-Sep-22 10:12 AM
Arrived: 22-Sep-22 10:53 AM
Distance/Time
Traveled:
71nm/0:41
Distance/Time
To Go:
Arrived

Flight Plot

Page will automatically refresh every two minutes.

Flight plan parsing failed; only flown route is shown


Map Options




Map Legend


Flown Route
Filed Route
Departure Airport
Arrival Airport
Navaid (VOR, NDB)
Fix

Horizontal Profiles

Position Reports

Time Latitude Longitude Heading Altitude Ground
Speed
22-Sep-22 09:59 35.429668 -119.046628 136 496ft 0kts
22-Sep-22 10:00 35.429668 -119.046628 136 496ft 0kts
22-Sep-22 10:01 35.429668 -119.046628 136 496ft 0kts
22-Sep-22 10:02 35.429668 -119.046628 136 496ft 0kts
22-Sep-22 10:03 35.429668 -119.046628 136 496ft 0kts
22-Sep-22 10:04 35.429668 -119.046628 136 496ft 0kts
22-Sep-22 10:05 35.429668 -119.046628 136 496ft 0kts
22-Sep-22 10:06 35.429668 -119.046628 136 496ft 0kts
22-Sep-22 10:07 35.429668 -119.046628 136 496ft 0kts
22-Sep-22 10:08 35.429668 -119.046628 136 496ft 0kts
22-Sep-22 10:09 35.427346 -119.046066 134 486ft 18kts
22-Sep-22 10:10 35.425816 -119.045000 225 481ft 0kts
22-Sep-22 10:11 35.425816 -119.045000 225 481ft 0kts
22-Sep-22 10:12 35.430705 -119.052435 315 485ft 117kts
22-Sep-22 10:13 35.460945 -119.090332 311 2204ft 173kts
22-Sep-22 10:14 35.494907 -119.133967 312 4456ft 178kts
22-Sep-22 10:14 35.485535 -119.174503 222 6217ft 176kts
22-Sep-22 10:16 35.428229 -119.186908 187 8530ft 187kts
22-Sep-22 10:17 35.375663 -119.193855 187 10468ft 194kts
22-Sep-22 10:18 35.321316 -119.211487 210 11545ft 235kts
22-Sep-22 10:18 35.269074 -119.247835 210 10896ft 268kts
22-Sep-22 10:19 35.204639 -119.292673 210 10499ft 272kts
22-Sep-22 10:21 35.120589 -119.324584 180 10562ft 279kts
22-Sep-22 10:22 35.046292 -119.323134 180 11483ft 261kts
22-Sep-22 10:22 34.983693 -119.321877 180 11494ft 279kts
22-Sep-22 10:23 34.904898 -119.320307 180 11480ft 287kts
22-Sep-22 10:24 34.824869 -119.318705 180 11452ft 288kts
22-Sep-22 10:26 34.732054 -119.316844 180 11504ft 288kts
22-Sep-22 10:27 34.651944 -119.315244 180 11113ft 285kts
22-Sep-22 10:27 34.585997 -119.313919 180 10237ft 283kts
22-Sep-22 10:28 34.507677 -119.312363 180 8297ft 274kts
22-Sep-22 10:30 34.425964 -119.321901 224 6834ft 248kts
22-Sep-22 10:31 34.386097 -119.386278 235 5059ft 236kts
22-Sep-22 10:31 34.355403 -119.437316 235 4479ft 210kts
22-Sep-22 10:32 34.321872 -119.493001 235 4487ft 199kts
22-Sep-22 10:33 34.306064 -119.553996 265 4065ft 194kts
22-Sep-22 10:35 34.302784 -119.629428 269 2908ft 180kts
22-Sep-22 10:35 34.301224 -119.677468 268 2936ft 175kts
22-Sep-22 10:36 34.299514 -119.734205 268 2944ft 171kts
22-Sep-22 10:37 34.297988 -119.787875 268 2926ft 157kts
22-Sep-22 10:38 34.296489 -119.840510 268 2994ft 163kts
22-Sep-22 10:39 34.302125 -119.891946 281 2993ft 153kts
22-Sep-22 10:40 34.310612 -119.943625 281 2992ft 158kts
22-Sep-22 10:41 34.319253 -119.996090 281 2989ft 159kts
22-Sep-22 10:42 34.328220 -120.050305 282 3008ft 165kts
22-Sep-22 10:43 34.337260 -120.104839 282 3002ft 162kts
22-Sep-22 10:44 34.372294 -120.125363 2 3033ft 180kts
22-Sep-22 10:45 34.412053 -120.110456 62 3034ft 149kts
22-Sep-22 10:46 34.422478 -120.058338 85 3001ft 163kts
22-Sep-22 10:47 34.424351 -120.002167 90 2404ft 160kts
22-Sep-22 10:48 34.425299 -119.958479 91 1726ft 125kts
22-Sep-22 10:49 34.426209 -119.916546 91 1075ft 116kts
22-Sep-22 10:50 34.427075 -119.878009 91 465ft 111kts
22-Sep-22 10:51 34.427733 -119.843399 90 15ft 78kts
22-Sep-22 10:52 34.429804 -119.839299 346 15ft 18kts
22-Sep-22 10:53 34.433033 -119.835038 261 15ft 0kts

Navigation Log

Ident Type
Flight plan parsing failed, navigation log unavailable